sensor_id;sensor_type;location;lat;lon;timestamp;pressure;altitude;pressure_sealevel;temperature;humidity
60427;BME280;46274;47.168;27.604;2024-02-04T00:00:23;99500.34;;;7.54;67.26
60427;BME280;46274;47.168;27.604;2024-02-04T00:06:25;99500.81;;;7.74;65.16
60427;BME280;46274;47.168;27.604;2024-02-04T00:12:28;99498.94;;;7.74;64.76
60427;BME280;46274;47.168;27.604;2024-02-04T00:18:30;99494.81;;;7.39;65.63
60427;BME280;46274;47.168;27.604;2024-02-04T00:24:33;99492.47;;;7.11;66.24
60427;BME280;46274;47.168;27.604;2024-02-04T00:30:35;99466.03;;;6.98;66.22
60427;BME280;46274;47.168;27.604;2024-02-04T00:36:40;99505.56;;;7.22;66.37
60427;BME280;46274;47.168;27.604;2024-02-04T00:42:42;99496.66;;;7.47;66.24
60427;BME280;46274;47.168;27.604;2024-02-04T00:48:44;99415.22;;;6.79;66.56
60427;BME280;46274;47.168;27.604;2024-02-04T00:54:50;99494.63;;;6.91;66.61
60427;BME280;46274;47.168;27.604;2024-02-04T01:00:52;99458.59;;;6.51;67.24
60427;BME280;46274;47.168;27.604;2024-02-04T01:06:55;99506.00;;;6.44;68.42
60427;BME280;46274;47.168;27.604;2024-02-04T01:13:03;99497.91;;;6.36;68.76
60427;BME280;46274;47.168;27.604;2024-02-04T01:19:06;99527.41;;;6.62;68.21
60427;BME280;46274;47.168;27.604;2024-02-04T01:25:10;99468.63;;;6.25;68.40
60427;BME280;46274;47.168;27.604;2024-02-04T01:31:13;99532.59;;;6.55;68.35
60427;BME280;46274;47.168;27.604;2024-02-04T01:37:15;99519.13;;;6.55;68.35
60427;BME280;46274;47.168;27.604;2024-02-04T01:43:19;99507.41;;;6.81;67.38
60427;BME280;46274;47.168;27.604;2024-02-04T01:49:23;99438.72;;;6.52;66.81
60427;BME280;46274;47.168;27.604;2024-02-04T01:55:28;99487.56;;;6.90;66.97
60427;BME280;46274;47.168;27.604;2024-02-04T02:01:31;99423.59;;;6.43;67.22
60427;BME280;46274;47.168;27.604;2024-02-04T02:07:34;99505.41;;;6.99;67.03
60427;BME280;46274;47.168;27.604;2024-02-04T02:13:38;99497.84;;;7.03;66.87
60427;BME280;46274;47.168;27.604;2024-02-04T02:19:59;99498.34;;;7.07;66.92
60427;BME280;46274;47.168;27.604;2024-02-04T02:26:08;99387.59;;;6.44;66.27
60427;BME280;46274;47.168;27.604;2024-02-04T02:32:10;99499.03;;;7.09;67.23
60427;BME280;46274;47.168;27.604;2024-02-04T02:38:27;99497.50;;;7.14;67.20
60427;BME280;46274;47.168;27.604;2024-02-04T02:44:34;99479.34;;;7.00;67.56
60427;BME280;46274;47.168;27.604;2024-02-04T02:50:40;99368.41;;;6.39;67.32
60427;BME280;46274;47.168;27.604;2024-02-04T02:56:42;99480.50;;;7.14;67.84
60427;BME280;46274;47.168;27.604;2024-02-04T03:02:45;99412.19;;;6.74;67.10
60427;BME280;46274;47.168;27.604;2024-02-04T03:08:47;99419.41;;;6.65;67.41
60427;BME280;46274;47.168;27.604;2024-02-04T03:14:50;99479.34;;;6.92;67.68
60427;BME280;46274;47.168;27.604;2024-02-04T03:20:52;99497.34;;;7.08;67.21
60427;BME280;46274;47.168;27.604;2024-02-04T03:26:55;99506.28;;;7.08;67.09
60427;BME280;46274;47.168;27.604;2024-02-04T03:32:57;99456.53;;;6.45;68.82
60427;BME280;46274;47.168;27.604;2024-02-04T03:39:00;99507.72;;;6.70;69.57
60427;BME280;46274;47.168;27.604;2024-02-04T03:45:05;99511.47;;;6.77;69.46
60427;BME280;46274;47.168;27.604;2024-02-04T03:51:15;99412.09;;;6.17;69.23
60427;BME280;46274;47.168;27.604;2024-02-04T03:57:18;99501.50;;;6.61;69.11
60427;BME280;46274;47.168;27.604;2024-02-04T04:03:20;99504.00;;;6.63;68.45
60427;BME280;46274;47.168;27.604;2024-02-04T04:09:25;99505.38;;;6.67;68.53
60427;BME280;46274;47.168;27.604;2024-02-04T04:15:32;99485.16;;;6.54;68.70
60427;BME280;46274;47.168;27.604;2024-02-04T04:21:37;99514.44;;;6.66;68.43
60427;BME280;46274;47.168;27.604;2024-02-04T04:27:40;99507.34;;;6.48;69.00
60427;BME280;46274;47.168;27.604;2024-02-04T04:33:42;99513.25;;;6.52;69.27
60427;BME280;46274;47.168;27.604;2024-02-04T04:39:45;99499.47;;;6.55;69.23
60427;BME280;46274;47.168;27.604;2024-02-04T04:45:53;99473.56;;;6.46;69.12
60427;BME280;46274;47.168;27.604;2024-02-04T04:51:56;99498.81;;;6.69;68.92
60427;BME280;46274;47.168;27.604;2024-02-04T04:57:59;99501.34;;;6.71;68.47
60427;BME280;46274;47.168;27.604;2024-02-04T05:04:08;99234.66;;;4.99;68.63
60427;BME280;46274;47.168;27.604;2024-02-04T05:10:11;99370.66;;;5.93;68.88
60427;BME280;46274;47.168;27.604;2024-02-04T05:16:23;99430.25;;;6.15;69.00
60427;BME280;46274;47.168;27.604;2024-02-04T05:22:31;99507.00;;;6.43;69.52
60427;BME280;46274;47.168;27.604;2024-02-04T05:28:43;99505.66;;;6.47;69.32
60427;BME280;46274;47.168;27.604;2024-02-04T05:34:47;99500.97;;;6.49;68.70
60427;BME280;46274;47.168;27.604;2024-02-04T05:40:52;99503.78;;;6.40;69.13
60427;BME280;46274;47.168;27.604;2024-02-04T05:46:57;99493.03;;;5.97;70.91
60427;BME280;46274;47.168;27.604;2024-02-04T05:53:00;99509.59;;;5.84;71.74
60427;BME280;46274;47.168;27.604;2024-02-04T05:59:06;99499.47;;;6.04;70.90
60427;BME280;46274;47.168;27.604;2024-02-04T06:05:13;99490.09;;;6.17;70.12
60427;BME280;46274;47.168;27.604;2024-02-04T06:11:17;99445.69;;;6.04;69.10
60427;BME280;46274;47.168;27.604;2024-02-04T06:17:21;99183.81;;;4.03;71.90
60427;BME280;46274;47.168;27.604;2024-02-04T06:23:27;99485.75;;;6.24;70.80
60427;BME280;46274;47.168;27.604;2024-02-04T06:29:29;99241.38;;;5.03;69.71
60427;BME280;46274;47.168;27.604;2024-02-04T06:35:32;99223.91;;;4.91;70.45
60427;BME280;46274;47.168;27.604;2024-02-04T06:41:37;99303.13;;;5.37;71.87
60427;BME280;46274;47.168;27.604;2024-02-04T06:47:43;99350.88;;;5.60;71.27
60427;BME280;46274;47.168;27.604;2024-02-04T06:53:59;99390.34;;;5.94;71.59
60427;BME280;46274;47.168;27.604;2024-02-04T07:00:03;99476.13;;;6.80;70.32
60427;BME280;46274;47.168;27.604;2024-02-04T07:06:38;99452.06;;;6.87;70.00
60427;BME280;46274;47.168;27.604;2024-02-04T07:12:46;99411.84;;;6.85;70.36
60427;BME280;46274;47.168;27.604;2024-02-04T07:18:49;99393.50;;;6.97;69.01
60427;BME280;46274;47.168;27.604;2024-02-04T07:24:57;99459.88;;;7.70;67.25
60427;BME280;46274;47.168;27.604;2024-02-04T07:31:00;99457.16;;;7.78;67.27
60427;BME280;46274;47.168;27.604;2024-02-04T07:37:04;99460.69;;;7.79;67.55
60427;BME280;46274;47.168;27.604;2024-02-04T07:43:09;99469.38;;;8.05;67.41
60427;BME280;46274;47.168;27.604;2024-02-04T07:49:14;99452.00;;;8.08;65.87
60427;BME280;46274;47.168;27.604;2024-02-04T07:55:21;99477.72;;;8.58;66.47
60427;BME280;46274;47.168;27.604;2024-02-04T08:01:23;99463.50;;;8.87;66.11
60427;BME280;46274;47.168;27.604;2024-02-04T08:07:26;99460.63;;;8.89;65.42
60427;BME280;46274;47.168;27.604;2024-02-04T08:13:28;99464.94;;;8.98;65.04
60427;BME280;46274;47.168;27.604;2024-02-04T08:19:33;99422.31;;;9.23;66.05
60427;BME280;46274;47.168;27.604;2024-02-04T08:25:40;99462.50;;;9.79;66.15
60427;BME280;46274;47.168;27.604;2024-02-04T08:31:48;99422.34;;;9.68;64.27
60427;BME280;46274;47.168;27.604;2024-02-04T08:37:51;99466.38;;;9.91;63.41
60427;BME280;46274;47.168;27.604;2024-02-04T08:44:15;99447.81;;;10.03;64.38
60427;BME280;46274;47.168;27.604;2024-02-04T08:50:35;99482.91;;;10.11;64.15
60427;BME280;46274;47.168;27.604;2024-02-04T08:56:37;99481.78;;;10.20;62.91
60427;BME280;46274;47.168;27.604;2024-02-04T09:02:40;99388.63;;;9.64;63.98
60427;BME280;46274;47.168;27.604;2024-02-04T09:08:45;99426.31;;;10.16;64.06
60427;BME280;46274;47.168;27.604;2024-02-04T09:14:49;99488.84;;;10.51;62.24
60427;BME280;46274;47.168;27.604;2024-02-04T09:20:51;99478.84;;;10.52;62.18
60427;BME280;46274;47.168;27.604;2024-02-04T09:26:54;99427.00;;;10.33;61.18
60427;BME280;46274;47.168;27.604;2024-02-04T09:32:57;99471.41;;;10.75;61.01
60427;BME280;46274;47.168;27.604;2024-02-04T09:39:06;99438.50;;;10.57;61.68
60427;BME280;46274;47.168;27.604;2024-02-04T09:45:14;99467.25;;;10.58;62.12
60427;BME280;46274;47.168;27.604;2024-02-04T09:51:20;99463.56;;;10.44;59.80
60427;BME280;46274;47.168;27.604;2024-02-04T09:57:40;99419.44;;;9.99;59.63
60427;BME280;46274;47.168;27.604;2024-02-04T10:03:56;99473.00;;;10.03;60.38
60427;BME280;46274;47.168;27.604;2024-02-04T10:10:15;99471.22;;;9.13;70.45
60427;BME280;46274;47.168;27.604;2024-02-04T10:16:23;99449.69;;;8.59;74.83
60427;BME280;46274;47.168;27.604;2024-02-04T10:22:33;99453.19;;;8.37;79.42
60427;BME280;46274;47.168;27.604;2024-02-04T10:36:05;99153.81;;;6.97;82.03
60427;BME280;46274;47.168;27.604;2024-02-04T10:42:43;99153.19;;;7.18;80.60
60427;BME280;46274;47.168;27.604;2024-02-04T10:49:00;99126.34;;;7.94;80.55
60427;BME280;46274;47.168;27.604;2024-02-04T10:56:08;99152.50;;;8.46;74.03
60427;BME280;46274;47.168;27.604;2024-02-04T11:02:53;99220.31;;;9.47;72.99
60427;BME280;46274;47.168;27.604;2024-02-04T11:09:40;99289.97;;;10.60;68.03
60427;BME280;46274;47.168;27.604;2024-02-04T11:15:58;99388.22;;;11.25;66.98
60427;BME280;46274;47.168;27.604;2024-02-04T11:29:10;99350.19;;;11.12;65.32
60427;BME280;46274;47.168;27.604;2024-02-04T11:35:17;99096.50;;;9.42;64.60
60427;BME280;46274;47.168;27.604;2024-02-04T11:41:52;99096.75;;;9.90;65.06
60427;BME280;46274;47.168;27.604;2024-02-04T11:48:01;99321.56;;;11.38;63.09
60427;BME280;46274;47.168;27.604;2024-02-04T11:54:08;99302.69;;;11.23;62.86
60427;BME280;46274;47.168;27.604;2024-02-04T12:00:43;99081.41;;;9.97;62.44
60427;BME280;46274;47.168;27.604;2024-02-04T12:07:04;99244.53;;;10.90;61.73
60427;BME280;46274;47.168;27.604;2024-02-04T12:13:18;99297.84;;;11.46;61.44
60427;BME280;46274;47.168;27.604;2024-02-04T12:19:50;99280.50;;;11.06;62.33
60427;BME280;46274;47.168;27.604;2024-02-04T12:25:54;99200.56;;;10.11;66.47
60427;BME280;46274;47.168;27.604;2024-02-04T12:32:31;99013.78;;;9.20;65.61
60427;BME280;46274;47.168;27.604;2024-02-04T12:38:36;99293.47;;;10.82;65.62
60427;BME280;46274;47.168;27.604;2024-02-04T12:45:14;99300.03;;;10.66;65.54
60427;BME280;46274;47.168;27.604;2024-02-04T12:58:09;99303.94;;;10.21;68.23
60427;BME280;46274;47.168;27.604;2024-02-04T13:04:41;99037.38;;;8.74;67.53
60427;BME280;46274;47.168;27.604;2024-02-04T13:10:53;99094.97;;;8.60;67.34
60427;BME280;46274;47.168;27.604;2024-02-04T13:16:57;99167.19;;;9.03;69.33
60427;BME280;46274;47.168;27.604;2024-02-04T13:23:12;99326.41;;;9.49;69.61
60427;BME280;46274;47.168;27.604;2024-02-04T13:29:25;99334.13;;;9.67;70.08
60427;BME280;46274;47.168;27.604;2024-02-04T13:35:27;99330.59;;;9.51;70.58
60427;BME280;46274;47.168;27.604;2024-02-04T13:41:32;99245.34;;;8.74;70.63
60427;BME280;46274;47.168;27.604;2024-02-04T13:47:48;99199.13;;;8.40;70.51
60427;BME280;46274;47.168;27.604;2024-02-04T13:54:06;99368.25;;;9.23;71.34
60427;BME280;46274;47.168;27.604;2024-02-04T14:00:14;99280.53;;;8.66;71.55
60427;BME280;46274;47.168;27.604;2024-02-04T14:06:17;99058.84;;;7.03;72.31
60427;BME280;46274;47.168;27.604;2024-02-04T14:12:22;99262.09;;;8.32;72.69
60427;BME280;46274;47.168;27.604;2024-02-04T14:18:28;99376.97;;;8.81;74.13
60427;BME280;46274;47.168;27.604;2024-02-04T14:24:31;99364.84;;;8.77;74.51
60427;BME280;46274;47.168;27.604;2024-02-04T14:30:41;99365.28;;;8.65;75.89
60427;BME280;46274;47.168;27.604;2024-02-04T14:36:49;99350.75;;;8.66;76.08
60427;BME280;46274;47.168;27.604;2024-02-04T14:42:52;99353.38;;;8.74;76.20
60427;BME280;46274;47.168;27.604;2024-02-04T14:48:54;99350.66;;;8.74;75.33
60427;BME280;46274;47.168;27.604;2024-02-04T14:54:57;99337.59;;;9.01;73.86
60427;BME280;46274;47.168;27.604;2024-02-04T15:01:07;99047.88;;;7.28;73.61
60427;BME280;46274;47.168;27.604;2024-02-04T15:07:21;99221.56;;;8.17;74.63
60427;BME280;46274;47.168;27.604;2024-02-04T15:13:29;99033.69;;;6.88;74.47
60427;BME280;46274;47.168;27.604;2024-02-04T15:19:39;99040.84;;;6.02;78.98
60427;BME280;46274;47.168;27.604;2024-02-04T15:25:50;99041.00;;;6.40;75.96
60427;BME280;46274;47.168;27.604;2024-02-04T15:32:03;99016.06;;;6.54;73.78
60427;BME280;46274;47.168;27.604;2024-02-04T15:38:19;99038.78;;;6.51;73.70
60427;BME280;46274;47.168;27.604;2024-02-04T15:44:36;99240.75;;;5.93;82.46
60427;BME280;46274;47.168;27.604;2024-02-04T15:50:50;99133.03;;;6.27;76.99
60427;BME280;46274;47.168;27.604;2024-02-04T15:57:05;99053.75;;;5.90;75.96
60427;BME280;46274;47.168;27.604;2024-02-04T16:03:16;99071.75;;;5.08;82.02
60427;BME280;46274;47.168;27.604;2024-02-04T16:09:19;99053.47;;;5.52;77.80
60427;BME280;46274;47.168;27.604;2024-02-04T16:15:26;99259.22;;;6.77;77.13
60427;BME280;46274;47.168;27.604;2024-02-04T16:21:36;99380.72;;;7.55;73.60
60427;BME280;46274;47.168;27.604;2024-02-04T16:27:39;99378.34;;;7.60;72.31
60427;BME280;46274;47.168;27.604;2024-02-04T16:34:03;99082.66;;;5.80;72.48
60427;BME280;46274;47.168;27.604;2024-02-04T16:40:09;99303.72;;;7.05;72.67
60427;BME280;46274;47.168;27.604;2024-02-04T16:46:27;99363.59;;;7.39;72.81
60427;BME280;46274;47.168;27.604;2024-02-04T16:52:32;99358.25;;;7.15;73.13
60427;BME280;46274;47.168;27.604;2024-02-04T16:58:35;99299.06;;;6.98;71.67
60427;BME280;46274;47.168;27.604;2024-02-04T17:04:40;99344.84;;;6.90;69.32
60427;BME280;46274;47.168;27.604;2024-02-04T17:10:50;99309.19;;;6.88;67.29
60427;BME280;46274;47.168;27.604;2024-02-04T17:23:08;99299.22;;;6.89;66.61
60427;BME280;46274;47.168;27.604;2024-02-04T17:29:12;99306.47;;;6.96;65.12
60427;BME280;46274;47.168;27.604;2024-02-04T17:35:15;99293.38;;;6.85;64.81
60427;BME280;46274;47.168;27.604;2024-02-04T17:41:21;99292.34;;;6.86;64.61
60427;BME280;46274;47.168;27.604;2024-02-04T17:47:25;99285.47;;;6.75;64.15
60427;BME280;46274;47.168;27.604;2024-02-04T17:53:28;99186.19;;;6.08;64.44
60427;BME280;46274;47.168;27.604;2024-02-04T17:59:35;99265.50;;;6.53;65.13
60427;BME280;46274;47.168;27.604;2024-02-04T18:05:40;99265.66;;;6.52;65.56
60427;BME280;46274;47.168;27.604;2024-02-04T18:11:52;99261.81;;;6.46;65.52
60427;BME280;46274;47.168;27.604;2024-02-04T18:17:57;99136.44;;;5.72;64.87
60427;BME280;46274;47.168;27.604;2024-02-04T18:24:21;99251.16;;;6.69;63.63
60427;BME280;46274;47.168;27.604;2024-02-04T18:30:29;99260.09;;;6.62;63.75
60427;BME280;46274;47.168;27.604;2024-02-04T18:36:31;99261.81;;;6.46;63.91
60427;BME280;46274;47.168;27.604;2024-02-04T18:42:34;99259.81;;;6.16;65.33
60427;BME280;46274;47.168;27.604;2024-02-04T18:48:38;99209.03;;;5.96;64.88
60427;BME280;46274;47.168;27.604;2024-02-04T18:54:44;99250.53;;;6.26;64.58
60427;BME280;46274;47.168;27.604;2024-02-04T19:00:46;99247.00;;;6.34;64.50
60427;BME280;46274;47.168;27.604;2024-02-04T19:06:49;99252.75;;;6.31;64.81
60427;BME280;46274;47.168;27.604;2024-02-04T19:12:53;99262.66;;;6.39;65.07
60427;BME280;46274;47.168;27.604;2024-02-04T19:18:57;99186.84;;;6.10;65.66
60427;BME280;46274;47.168;27.604;2024-02-04T19:25:02;99214.72;;;5.93;67.52
60427;BME280;46274;47.168;27.604;2024-02-04T19:31:09;99211.56;;;6.22;66.90
60427;BME280;46274;47.168;27.604;2024-02-04T19:37:19;98917.59;;;3.52;72.82
60427;BME280;46274;47.168;27.604;2024-02-04T19:43:24;99213.75;;;6.10;68.13
60427;BME280;46274;47.168;27.604;2024-02-04T19:49:31;99199.47;;;6.10;69.68
60427;BME280;46274;47.168;27.604;2024-02-04T19:55:35;99175.75;;;6.14;70.00
60427;BME280;46274;47.168;27.604;2024-02-04T20:01:37;99145.47;;;6.28;69.14
60427;BME280;46274;47.168;27.604;2024-02-04T20:07:42;99084.00;;;5.92;69.64
60427;BME280;46274;47.168;27.604;2024-02-04T20:13:45;99193.50;;;6.47;69.42
60427;BME280;46274;47.168;27.604;2024-02-04T20:19:52;99178.56;;;6.45;70.26
60427;BME280;46274;47.168;27.604;2024-02-04T20:25:56;99133.06;;;6.10;70.62
60427;BME280;46274;47.168;27.604;2024-02-04T20:32:10;98891.91;;;4.50;72.55
60427;BME280;46274;47.168;27.604;2024-02-04T20:38:14;98896.41;;;4.33;71.82
60427;BME280;46274;47.168;27.604;2024-02-04T20:44:19;99163.47;;;6.19;72.17
60427;BME280;46274;47.168;27.604;2024-02-04T20:50:28;99011.84;;;5.32;72.54
60427;BME280;46274;47.168;27.604;2024-02-04T20:56:34;99075.50;;;5.47;73.85
60427;BME280;46274;47.168;27.604;2024-02-04T21:02:38;98859.56;;;4.27;72.75
60427;BME280;46274;47.168;27.604;2024-02-04T21:08:55;99201.63;;;5.90;76.41
60427;BME280;46274;47.168;27.604;2024-02-04T21:14:59;99097.13;;;5.30;74.68
60427;BME280;46274;47.168;27.604;2024-02-04T21:21:18;99058.81;;;4.87;79.66
60427;BME280;46274;47.168;27.604;2024-02-04T21:27:37;98886.63;;;4.00;81.67
60427;BME280;46274;47.168;27.604;2024-02-04T21:40:58;99015.53;;;4.90;84.19
60427;BME280;46274;47.168;27.604;2024-02-04T21:47:47;98832.25;;;3.48;86.30
60427;BME280;46274;47.168;27.604;2024-02-04T21:54:46;98917.66;;;4.10;86.10
60427;BME280;46274;47.168;27.604;2024-02-04T22:01:25;98836.38;;;3.85;85.34
60427;BME280;46274;47.168;27.604;2024-02-04T22:16:15;98811.03;;;3.71;88.11
60427;BME280;46274;47.168;27.604;2024-02-04T22:23:00;99087.38;;;5.29;90.55
60427;BME280;46274;47.168;27.604;2024-02-04T22:29:16;99074.09;;;5.02;90.89
60427;BME280;46274;47.168;27.604;2024-02-04T23:26:48;98660.94;;;2.55;100.00
60427;BME280;46274;47.168;27.604;2024-02-04T23:33:40;98856.16;;;3.92;100.00
60427;BME280;46274;47.168;27.604;2024-02-04T23:47:53;98774.41;;;3.88;97.80
